Time,TemperatureF,DewpointF,PressureIn,WindDirection,WindDirectionDegrees,WindSpeedMPH,WindSpeedGustMPH,Humidity,HourlyPrecipIn,Conditions,Clouds,dailyrainin,SoftwareType,DateUTC
2013-02-18 07:00:00,20.5,15.3,30.37,NNE,23,0.0,0.0,80,0.00,,,0.00,WUHU216HW,2013-02-18 12:00:00,
2013-02-18 07:05:00,20.5,15.3,30.37,NNE,23,0.0,0.0,80,0.00,,,0.00,WUHU216HW,2013-02-18 12:05:00,
2013-02-18 07:30:00,21.1,16.1,30.38,NNE,23,0.0,0.0,81,0.00,,,0.00,WUHU216HW,2013-02-18 12:30:00,
2013-02-18 07:35:00,21.1,16.1,30.38,NNE,23,0.0,0.0,81,0.00,,,0.00,WUHU216HW,2013-02-18 12:35:00,
2013-02-18 08:00:00,23.4,18.7,30.40,NE,45,0.0,0.0,82,0.00,,,0.00,WUHU216HW,2013-02-18 13:00:00,
2013-02-18 08:05:00,23.4,18.7,30.40,NE,45,0.0,0.0,82,0.00,,,0.00,WUHU216HW,2013-02-18 13:05:00,
2013-02-18 08:30:00,27.4,22.9,30.41,East,90,0.2,0.2,83,0.00,,,0.00,WUHU216HW,2013-02-18 13:30:00,
2013-02-18 08:35:00,27.4,22.9,30.41,East,90,0.2,0.2,83,0.00,,,0.00,WUHU216HW,2013-02-18 13:35:00,
2013-02-18 09:00:00,33.5,24.3,30.42,East,90,0.0,0.0,69,0.00,,,0.00,WUHU216HW,2013-02-18 14:00:00,
2013-02-18 09:07:00,33.5,24.3,30.42,East,90,0.0,0.0,69,0.00,,,0.00,WUHU216HW,2013-02-18 14:07:00,
2013-02-18 09:30:00,37.1,25.3,30.41,ENE,68,0.7,0.7,62,0.00,,,0.00,WUHU216HW,2013-02-18 14:30:00,
2013-02-18 09:35:00,37.1,25.3,30.41,ENE,68,0.7,0.7,62,0.00,,,0.00,WUHU216HW,2013-02-18 14:35:00,
2013-02-18 10:00:00,40.3,25.3,30.41,East,90,0.4,0.4,55,0.00,,,0.00,WUHU216HW,2013-02-18 15:00:00,
2013-02-18 10:05:00,40.3,25.3,30.41,East,90,0.4,0.4,55,0.00,,,0.00,WUHU216HW,2013-02-18 15:05:00,
2013-02-18 10:30:00,42.7,23.8,30.42,East,90,0.7,0.7,47,0.00,,,0.00,WUHU216HW,2013-02-18 15:30:00,
2013-02-18 10:35:00,42.7,23.8,30.42,East,90,0.7,0.7,47,0.00,,,0.00,WUHU216HW,2013-02-18 15:35:00,
2013-02-18 11:00:00,44.8,24.1,30.41,ESE,113,0.2,0.2,44,0.00,,,0.00,WUHU216HW,2013-02-18 16:00:00,
2013-02-18 11:05:00,44.8,24.1,30.41,ESE,113,0.2,0.2,44,0.00,,,0.00,WUHU216HW,2013-02-18 16:05:00,
2013-02-18 11:30:00,46.3,21.9,30.41,South,180,0.2,0.2,38,0.00,,,0.00,WUHU216HW,2013-02-18 16:30:00,
2013-02-18 11:35:00,46.3,21.9,30.41,South,180,0.2,0.2,38,0.00,,,0.00,WUHU216HW,2013-02-18 16:35:00,
2013-02-18 12:00:00,48.4,21.2,30.39,SE,135,0.4,0.4,34,0.00,,,0.00,WUHU216HW,2013-02-18 17:00:00,
2013-02-18 12:05:00,48.4,21.2,30.39,SE,135,0.4,0.4,34,0.00,,,0.00,WUHU216HW,2013-02-18 17:05:00,
2013-02-18 12:30:00,49.0,19.6,30.37,NE,45,1.8,1.8,31,0.00,,,0.00,WUHU216HW,2013-02-18 17:30:00,
2013-02-18 12:35:00,49.0,19.6,30.37,NE,45,1.8,1.8,31,0.00,,,0.00,WUHU216HW,2013-02-18 17:35:00,
2013-02-18 13:00:00,49.3,18.3,30.35,SE,135,0.7,0.7,29,0.00,,,0.00,WUHU216HW,2013-02-18 18:00:00,
2013-02-18 13:05:00,49.3,18.3,30.35,SE,135,0.7,0.7,29,0.00,,,0.00,WUHU216HW,2013-02-18 18:05:00,
2013-02-18 13:30:00,51.3,20.0,30.34,WNW,293,1.1,1.1,29,0.00,,,0.00,WUHU216HW,2013-02-18 18:30:00,
2013-02-18 13:35:00,51.3,20.0,30.34,WNW,293,1.1,1.1,29,0.00,,,0.00,WUHU216HW,2013-02-18 18:35:00,
2013-02-18 14:00:00,52.2,20.8,30.33,South,180,3.1,3.1,29,0.00,,,0.00,WUHU216HW,2013-02-18 19:00:00,
2013-02-18 14:05:00,52.2,20.8,30.33,South,180,3.1,3.1,29,0.00,,,0.00,WUHU216HW,2013-02-18 19:05:00,
2013-02-18 14:30:00,52.9,20.5,30.32,SSE,158,0.4,0.4,28,0.00,,,0.00,WUHU216HW,2013-02-18 19:30:00,
2013-02-18 14:35:00,52.9,20.5,30.32,SSE,158,0.4,0.4,28,0.00,,,0.00,WUHU216HW,2013-02-18 19:35:00,
2013-02-18 15:00:00,53.8,21.2,30.32,SW,225,4.5,4.5,28,0.00,,,0.00,WUHU216HW,2013-02-18 20:00:00,
2013-02-18 15:05:00,53.8,21.2,30.32,SW,225,4.5,4.5,28,0.00,,,0.00,WUHU216HW,2013-02-18 20:05:00,
2013-02-18 15:30:00,54.2,20.6,30.31,West,270,1.3,1.3,27,0.00,,,0.00,WUHU216HW,2013-02-18 20:30:00,
2013-02-18 15:35:00,54.2,20.6,30.31,West,270,1.3,1.3,27,0.00,,,0.00,WUHU216HW,2013-02-18 20:35:00,
2013-02-18 16:00:00,53.8,21.2,30.31,SW,225,1.6,1.6,28,0.00,,,0.00,WUHU216HW,2013-02-18 21:00:00,
2013-02-18 16:05:00,53.8,21.2,30.31,SW,225,1.6,1.6,28,0.00,,,0.00,WUHU216HW,2013-02-18 21:05:00,
2013-02-18 16:30:00,52.9,21.4,30.30,SSE,158,3.1,3.1,29,0.00,,,0.00,WUHU216HW,2013-02-18 21:30:00,
2013-02-18 16:35:00,52.9,21.4,30.30,SSE,158,3.1,3.1,29,0.00,,,0.00,WUHU216HW,2013-02-18 21:35:00,
2013-02-18 17:00:00,52.2,21.8,30.30,SE,135,2.0,2.0,30,0.00,,,0.00,WUHU216HW,2013-02-18 22:00:00,
2013-02-18 17:05:00,52.2,21.8,30.30,SE,135,2.0,2.0,30,0.00,,,0.00,WUHU216HW,2013-02-18 22:05:00,
2013-02-18 17:30:00,50.9,22.7,30.30,SW,225,1.1,1.1,33,0.00,,,0.00,WUHU216HW,2013-02-18 22:30:00,
2013-02-18 17:35:00,50.9,22.7,30.30,SW,225,1.1,1.1,33,0.00,,,0.00,WUHU216HW,2013-02-18 22:35:00,
2013-02-18 18:00:00,48.6,24.7,30.31,SE,135,1.3,1.3,39,0.00,,,0.00,WUHU216HW,2013-02-18 23:00:00,
2013-02-18 18:05:00,48.6,24.7,30.31,SE,135,1.3,1.3,39,0.00,,,0.00,WUHU216HW,2013-02-18 23:05:00,
2013-02-18 18:30:00,46.4,25.0,30.32,SSW,203,0.4,0.4,43,0.00,,,0.00,WUHU216HW,2013-02-18 23:30:00,
2013-02-18 18:35:00,46.4,25.0,30.32,SSW,203,0.4,0.4,43,0.00,,,0.00,WUHU216HW,2013-02-18 23:35:00,
2013-02-18 19:00:00,44.6,25.0,30.33,SW,225,0.4,0.4,46,0.00,,,0.00,WUHU216HW,2013-02-19 00:00:00,
2013-02-18 19:05:00,44.6,25.0,30.33,SW,225,0.4,0.4,46,0.00,,,0.00,WUHU216HW,2013-02-19 00:05:00,
2013-02-18 19:30:00,42.8,24.5,30.34,South,180,0.4,0.4,48,0.00,,,0.00,WUHU216HW,2013-02-19 00:30:00,
2013-02-18 19:35:00,42.8,24.5,30.34,South,180,0.4,0.4,48,0.00,,,0.00,WUHU216HW,2013-02-19 00:35:00,
2013-02-18 20:00:00,41.0,24.2,30.34,SSW,203,0.0,0.0,51,0.00,,,0.00,WUHU216HW,2013-02-19 01:00:00,
2013-02-18 20:05:00,41.0,24.2,30.34,SSW,203,0.0,0.0,51,0.00,,,0.00,WUHU216HW,2013-02-19 01:05:00,
2013-02-18 20:30:00,40.0,24.6,30.33,SSE,158,1.1,1.1,54,0.00,,,0.00,WUHU216HW,2013-02-19 01:30:00,
2013-02-18 20:35:00,40.0,24.6,30.33,SSE,158,1.1,1.1,54,0.00,,,0.00,WUHU216HW,2013-02-19 01:35:00,
2013-02-18 21:30:00,37.6,23.7,30.31,South,180,0.2,0.2,57,0.00,,,0.00,WUHU216HW,2013-02-19 02:30:00,
2013-02-18 21:35:00,37.6,23.7,30.31,South,180,0.2,0.2,57,0.00,,,0.00,WUHU216HW,2013-02-19 02:35:00,
2013-02-18 22:00:00,35.5,23.0,30.30,South,180,0.0,0.0,60,0.00,,,0.00,WUHU216HW,2013-02-19 03:00:00,
2013-02-18 22:05:00,35.5,23.0,30.30,South,180,0.0,0.0,60,0.00,,,0.00,WUHU216HW,2013-02-19 03:05:00,
2013-02-18 22:30:00,34.2,22.5,30.29,SSW,203,0.2,0.2,62,0.00,,,0.00,WUHU216HW,2013-02-19 03:30:00,
2013-02-18 22:35:00,34.2,22.5,30.29,SSW,203,0.2,0.2,62,0.00,,,0.00,WUHU216HW,2013-02-19 03:35:00,